Terminal Aerodrome Forecast
Issued by NWS

Home | Current Version | Previous Version | Text Only | Print | Product List | Glossary On
Versions: 1 2 3 4 5 6 7 8 9 10 11 12 13 14 15
783
FTUS43 KDLH 141040 AAA
TAFHYR
TAF AMD
KHYR 141040Z 1411/1506 19007KT P6SM OVC050 WS020/25035KT
     FM141200 20004KT P6SM SKC
     FM141800 23003KT P6SM SCT200=

USA.gov is the U.S. government's official web portal to all federal, state and local government web resources and services.